Tremonton, Utah
Current Conditions -  °F | °C
As of 9:15 PM on Friday 19 Dec 2014 (Local Time) from KBMC Reporting Station
Overcast Overcast  
Wind Chill: 36°   Ceiling: 3100
Heat Index: 40°   Visibility: 10mi
Dew Point: 32°   Wind: 6mph
Humidity: 73%   Direction: 210°SSW
Pressure: 30.16"   Gusts: NA
Location:  41.71°N, 112.17°W
Report Text: KBMC 200415Z AUTO 21005KT 10SM SCT020 BKN031 OVC043 05/00 A3016 RMK AO1 T00470002
Loading
Personal Weather Stations






























Interactive Weather Map New forecast layout! Learn more

10-Day Weather Forecast

Advertisements
Track Severe Weather on mobile